Time;durP1;ratioP1;P1;durP2;ratioP2;P2;SDS_P1;SDS_P2;PMS_P1;PMS_P2;Temp;Humidity;BMP_temperature;BMP_pressure;BME280_temperature;BME280_humidity;BME280_pressure;Samples;Min_cycle;Max_cycle;Signal;HPM_P1;HPM_P2
2023/05/03 00:00:53;;;;;;;;;;;6.10;99.70;;;;;;5034285;28;20431;-52
2023/05/03 00:03:21;;;;;;;;;;;6.00;99.80;;;;;;5034728;28;20489;-54
2023/05/03 00:05:48;;;;;;;;;;;6.10;99.90;;;;;;5034110;28;19952;-44
2023/05/03 00:08:15;;;;;;;;;;;6.00;99.90;;;;;;5034452;28;19973;-55
2023/05/03 00:10:41;;;;;;;;;;;6.00;99.90;;;;;;5034439;28;19937;-57
2023/05/03 00:13:08;;;;;;;;;;;5.90;99.90;;;;;;5033034;28;20460;-53
2023/05/03 00:15:34;;;;;;;;;;;5.90;99.90;;;;;;5043840;28;19995;-56
2023/05/03 00:18:02;;;;;;;;;;;5.90;99.90;;;;;;5034372;28;19986;-52
2023/05/03 00:20:29;;;;;;;;;;;5.80;99.90;;;;;;5034122;28;19932;-54
2023/05/03 00:22:56;;;;;;;;;;;5.80;99.90;;;;;;5034664;28;19953;-55
2023/05/03 00:25:22;;;;;;;;;;;5.70;99.90;;;;;;5032998;28;20451;-52
2023/05/03 00:27:49;;;;;;;;;;;5.70;99.90;;;;;;5033378;28;19956;-49
2023/05/03 00:30:17;;;;;;;;;;;5.70;99.90;;;;;;5032583;28;19997;-56
2023/05/03 00:32:44;;;;;;;;;;;5.70;99.90;;;;;;5033936;28;19947;-57
2023/05/03 00:35:12;;;;;;;;;;;5.60;99.90;;;;;;5034332;28;20052;-56
2023/05/03 00:37:39;;;;;;;;;;;5.60;99.90;;;;;;5033641;28;19992;-53
2023/05/03 00:40:06;;;;;;;;;;;5.60;99.90;;;;;;5034274;28;19941;-56
2023/05/03 00:42:33;;;;;;;;;;;5.60;99.90;;;;;;5034503;28;20391;-57
2023/05/03 00:45:03;;;;;;;;;;;5.60;99.90;;;;;;5033271;28;19992;-54
2023/05/03 00:47:30;;;;;;;;;;;5.50;99.90;;;;;;5032512;28;20060;-58
2023/05/03 00:49:57;;;;;;;;;;;5.50;99.90;;;;;;5033536;28;20006;-59
2023/05/03 00:52:25;;;;;;;;;;;5.50;99.90;;;;;;5033981;28;19976;-53
2023/05/03 00:54:52;;;;;;;;;;;5.50;99.90;;;;;;5033136;28;19936;-58
2023/05/03 00:57:20;;;;;;;;;;;5.50;99.90;;;;;;5033400;28;19989;-57
2023/05/03 00:59:47;;;;;;;;;;;5.40;99.90;;;;;;5033379;28;19939;-58
2023/05/03 01:02:13;;;;;;;;;;;5.50;99.90;;;;;;5031927;28;19940;-55
2023/05/03 01:04:41;;;;;;;;;;;5.50;99.90;;;;;;5033015;28;19971;-58
2023/05/03 01:07:10;;;;;;;;;;;5.60;99.90;;;;;;5032762;28;19957;-57
2023/05/03 01:09:39;;;;;;;;;;;5.60;99.90;;;;;;5034899;28;20055;-56
2023/05/03 01:12:10;;;;;;;;;;;5.60;99.90;;;;;;5032078;28;20284;-53
2023/05/03 01:14:39;;;;;;;;;;;5.60;99.90;;;;;;5032399;28;19933;-57
2023/05/03 01:17:07;;;;;;;;;;;5.60;99.90;;;;;;5033279;28;20050;-55
2023/05/03 01:19:36;;;;;;;;;;;5.60;99.90;;;;;;5032221;28;20019;-54
2023/05/03 01:22:03;;;;;;;;;;;5.70;99.90;;;;;;5032959;28;19987;-56
2023/05/03 01:24:30;;;;;;;;;;;5.60;99.90;;;;;;5032295;28;20282;-56
2023/05/03 01:26:58;;;;;;;;;;;5.70;99.90;;;;;;5032515;28;19961;-56
2023/05/03 01:29:25;;;;;;;;;;;5.70;99.90;;;;;;5032656;28;19938;-58
2023/05/03 01:31:53;;;;;;;;;;;5.70;99.90;;;;;;5032594;28;19936;-55
2023/05/03 01:34:22;;;;;;;;;;;5.70;99.90;;;;;;5032501;28;20055;-55
2023/05/03 01:36:49;;;;;;;;;;;5.80;99.90;;;;;;5032169;28;19966;-56
2023/05/03 01:39:17;;;;;;;;;;;5.80;99.90;;;;;;5032087;28;20285;-56
2023/05/03 01:41:44;;;;;;;;;;;5.80;99.90;;;;;;5032817;28;19932;-52
2023/05/03 01:44:12;;;;;;;;;;;5.80;99.90;;;;;;5030712;28;19955;-48
2023/05/03 01:46:43;;;;;;;;;;;5.90;99.90;;;;;;5032673;28;20003;-54
2023/05/03 01:49:09;;;;;;;;;;;5.90;99.90;;;;;;5033112;28;19995;-54
2023/05/03 01:51:36;;;;;;;;;;;5.90;99.90;;;;;;5032873;28;19942;-46
2023/05/03 01:54:02;;;;;;;;;;;5.90;99.90;;;;;;5029734;28;19935;-57
2023/05/03 01:56:30;;;;;;;;;;;6.00;99.90;;;;;;5031666;28;19996;-55
2023/05/03 01:58:56;;;;;;;;;;;5.90;99.90;;;;;;5033115;28;19937;-56
2023/05/03 02:01:24;;;;;;;;;;;6.00;99.90;;;;;;5033785;28;19991;-53
2023/05/03 02:03:51;;;;;;;;;;;6.00;99.90;;;;;;5032958;28;19965;-56
2023/05/03 02:06:18;;;;;;;;;;;6.00;99.90;;;;;;5032003;28;20413;-58
2023/05/03 02:08:44;;;;;;;;;;;6.00;99.90;;;;;;5031851;28;19932;-53
2023/05/03 02:11:11;;;;;;;;;;;6.10;99.90;;;;;;5033107;28;19935;-47
2023/05/03 02:13:38;;;;;;;;;;;6.00;99.90;;;;;;5034237;28;19964;-55
2023/05/03 02:16:04;;;;;;;;;;;6.00;99.90;;;;;;5038875;28;19983;-58
2023/05/03 02:18:34;;;;;;;;;;;6.00;99.90;;;;;;5036485;28;20026;-50
2023/05/03 02:21:01;;;;;;;;;;;6.00;99.90;;;;;;5035757;28;19938;-58
2023/05/03 02:23:27;;;;;;;;;;;6.00;99.90;;;;;;5035562;28;19991;-56
2023/05/03 02:25:54;;;;;;;;;;;5.90;99.90;;;;;;5037349;28;20426;-54
2023/05/03 02:28:20;;;;;;;;;;;5.90;99.90;;;;;;5035353;28;19967;-56
2023/05/03 02:30:47;;;;;;;;;;;5.90;99.90;;;;;;5034931;28;19933;-52
2023/05/03 02:33:14;;;;;;;;;;;5.90;99.90;;;;;;5035318;28;19939;-58
2023/05/03 02:35:42;;;;;;;;;;;5.80;99.90;;;;;;5036054;28;19993;-55
2023/05/03 02:38:08;;;;;;;;;;;5.90;99.90;;;;;;5037186;28;19991;-57
2023/05/03 02:40:35;;;;;;;;;;;5.80;99.90;;;;;;5034807;28;19983;-47
2023/05/03 02:43:02;;;;;;;;;;;5.70;99.90;;;;;;5034734;28;20020;-55
2023/05/03 02:45:29;;;;;;;;;;;5.70;99.90;;;;;;5034883;28;20126;-54
2023/05/03 02:47:55;;;;;;;;;;;5.70;99.90;;;;;;5035208;28;19982;-57
2023/05/03 02:50:22;;;;;;;;;;;5.70;99.90;;;;;;5036903;28;20342;-57
2023/05/03 02:52:50;;;;;;;;;;;5.70;99.90;;;;;;5033656;28;19988;-56
2023/05/03 02:55:17;;;;;;;;;;;5.60;99.90;;;;;;5036390;28;19974;-55
2023/05/03 02:57:44;;;;;;;;;;;5.60;99.90;;;;;;5035545;28;20034;-57
2023/05/03 03:00:14;;;;;;;;;;;5.50;99.90;;;;;;5035777;28;20382;-55
2023/05/03 03:02:40;;;;;;;;;;;5.50;99.90;;;;;;5034401;28;20030;-55
2023/05/03 03:05:08;;;;;;;;;;;5.50;99.90;;;;;;5035282;28;19985;-57
2023/05/03 03:07:37;;;;;;;;;;;5.40;99.90;;;;;;5035224;28;19956;-49
2023/05/03 03:10:06;;;;;;;;;;;5.40;99.90;;;;;;5034983;28;20006;-57
2023/05/03 03:12:33;;;;;;;;;;;5.40;99.90;;;;;;5036091;28;20084;-55
2023/05/03 03:14:59;;;;;;;;;;;5.30;99.90;;;;;;5033403;28;19992;-56
2023/05/03 03:17:26;;;;;;;;;;;5.30;99.90;;;;;;5035410;28;20022;-58
2023/05/03 03:19:53;;;;;;;;;;;5.30;99.90;;;;;;5034028;28;19983;-58
2023/05/03 03:22:19;;;;;;;;;;;5.20;99.90;;;;;;5034793;28;19941;-58
2023/05/03 03:24:46;;;;;;;;;;;5.20;99.90;;;;;;5034460;28;19935;-53
2023/05/03 03:27:14;;;;;;;;;;;5.10;99.90;;;;;;5034200;28;20000;-58
2023/05/03 03:29:41;;;;;;;;;;;5.10;99.90;;;;;;5034182;28;19942;-56
2023/05/03 03:32:07;;;;;;;;;;;5.10;99.90;;;;;;5033562;28;19945;-58
2023/05/03 03:34:34;;;;;;;;;;;5.00;99.90;;;;;;5035165;28;20018;-53
2023/05/03 03:37:01;;;;;;;;;;;5.00;99.90;;;;;;5032528;28;19940;-58
2023/05/03 03:39:27;;;;;;;;;;;5.00;99.90;;;;;;5032039;28;20459;-58
2023/05/03 03:41:54;;;;;;;;;;;4.90;99.90;;;;;;5032983;28;19978;-56
2023/05/03 03:44:22;;;;;;;;;;;4.90;99.90;;;;;;5033422;28;19938;-59
2023/05/03 03:46:49;;;;;;;;;;;5.00;99.90;;;;;;5035663;28;19998;-56
2023/05/03 03:49:15;;;;;;;;;;;4.90;99.90;;;;;;5034981;28;19958;-54
2023/05/03 03:51:42;;;;;;;;;;;4.90;99.90;;;;;;5034540;28;20010;-57
2023/05/03 03:54:08;;;;;;;;;;;4.80;99.90;;;;;;5035139;28;19980;-56
2023/05/03 03:56:35;;;;;;;;;;;4.80;99.90;;;;;;5035603;28;20043;-50
2023/05/03 03:59:02;;;;;;;;;;;4.80;99.90;;;;;;5034589;28;19990;-57
2023/05/03 04:01:30;;;;;;;;;;;4.80;99.90;;;;;;5034606;28;19981;-55
2023/05/03 04:03:56;;;;;;;;;;;4.70;99.90;;;;;;5035200;28;19932;-58
2023/05/03 04:06:23;;;;;;;;;;;4.70;99.90;;;;;;5034724;28;19949;-50
2023/05/03 04:08:49;;;;;;;;;;;4.70;99.90;;;;;;5034771;28;20459;-60
2023/05/03 04:11:16;;;;;;;;;;;4.60;99.90;;;;;;5037235;28;19990;-53
2023/05/03 04:13:43;;;;;;;;;;;4.60;99.90;;;;;;5037092;28;19989;-59
2023/05/03 04:16:09;;;;;;;;;;;4.60;99.90;;;;;;5041309;28;19942;-61
2023/05/03 04:18:37;;;;;;;;;;;4.60;99.90;;;;;;5033916;28;20005;-50
2023/05/03 04:21:04;;;;;;;;;;;4.50;99.90;;;;;;5032424;28;20066;-60
2023/05/03 04:23:31;;;;;;;;;;;4.50;99.90;;;;;;5035645;28;20040;-60
2023/05/03 04:25:58;;;;;;;;;;;4.50;99.90;;;;;;5035261;28;20462;-61
2023/05/03 04:28:25;;;;;;;;;;;4.50;99.90;;;;;;5033019;28;19979;-50
2023/05/03 04:30:52;;;;;;;;;;;4.50;99.90;;;;;;5035223;28;19935;-58
2023/05/03 04:33:19;;;;;;;;;;;4.50;99.90;;;;;;5035333;28;19995;-61
2023/05/03 04:35:50;;;;;;;;;;;4.50;99.90;;;;;;5035730;28;19941;-57
2023/05/03 04:38:17;;;;;;;;;;;4.50;99.90;;;;;;5034178;28;19942;-54
2023/05/03 04:40:44;;;;;;;;;;;4.50;99.90;;;;;;5033885;28;19988;-57
2023/05/03 04:43:11;;;;;;;;;;;4.50;99.90;;;;;;5035396;28;19940;-59
2023/05/03 04:45:38;;;;;;;;;;;4.50;99.90;;;;;;5035732;28;19987;-56
2023/05/03 04:48:05;;;;;;;;;;;4.50;99.90;;;;;;5034357;28;20009;-58
2023/05/03 04:50:31;;;;;;;;;;;4.50;99.90;;;;;;5034990;28;19937;-61
2023/05/03 04:53:00;;;;;;;;;;;4.50;99.90;;;;;;5034030;28;19937;-55
2023/05/03 04:55:26;;;;;;;;;;;4.50;99.90;;;;;;5015407;28;19936;-53
2023/05/03 04:57:53;;;;;;;;;;;4.60;99.90;;;;;;5031958;28;19986;-60
2023/05/03 05:00:20;;;;;;;;;;;4.60;99.90;;;;;;5032266;28;20018;-58
2023/05/03 05:02:46;;;;;;;;;;;4.60;99.90;;;;;;5031436;28;20396;-60
2023/05/03 05:05:13;;;;;;;;;;;4.70;99.90;;;;;;5019779;28;20034;-54
2023/05/03 05:07:40;;;;;;;;;;;4.70;99.90;;;;;;5034290;28;19997;-59
2023/05/03 05:10:09;;;;;;;;;;;4.70;99.90;;;;;;5033452;28;20449;-57
2023/05/03 05:12:35;;;;;;;;;;;4.80;99.90;;;;;;5033786;28;20411;-60
2023/05/03 05:15:03;;;;;;;;;;;4.80;99.90;;;;;;5032720;28;20031;-51
2023/05/03 05:17:29;;;;;;;;;;;4.90;99.90;;;;;;5030886;28;20292;-58
2023/05/03 05:19:56;;;;;;;;;;;4.90;99.90;;;;;;5034761;28;19948;-58
2023/05/03 05:22:23;;;;;;;;;;;5.00;99.90;;;;;;5034070;28;19935;-59
2023/05/03 05:24:49;;;;;;;;;;;5.10;99.90;;;;;;5032932;28;19979;-49
2023/05/03 05:27:17;;;;;;;;;;;5.10;99.90;;;;;;5033945;28;19992;-57
2023/05/03 05:29:44;;;;;;;;;;;5.20;99.90;;;;;;5033829;28;20407;-60
2023/05/03 05:32:11;;;;;;;;;;;5.30;99.90;;;;;;5027359;28;19935;-51
2023/05/03 05:34:38;;;;;;;;;;;5.30;99.90;;;;;;5031293;28;20323;-60
2023/05/03 05:37:05;;;;;;;;;;;5.40;99.90;;;;;;5032821;28;19941;-58
2023/05/03 05:39:31;;;;;;;;;;;5.60;99.90;;;;;;5032760;28;19952;-54
2023/05/03 05:41:58;;;;;;;;;;;5.60;99.90;;;;;;5031498;28;20018;-54
2023/05/03 05:44:26;;;;;;;;;;;5.60;99.90;;;;;;5032921;28;19986;-56
2023/05/03 05:46:53;;;;;;;;;;;5.70;99.90;;;;;;5033299;28;19949;-57
2023/05/03 05:49:19;;;;;;;;;;;5.80;99.90;;;;;;5038690;28;19935;-56
2023/05/03 05:51:46;;;;;;;;;;;5.80;99.90;;;;;;5039697;28;19984;-51
2023/05/03 05:54:16;;;;;;;;;;;5.90;99.90;;;;;;5040511;28;20018;-58
2023/05/03 05:56:42;;;;;;;;;;;6.00;99.90;;;;;;5036875;28;20379;-57
2023/05/03 05:59:10;;;;;;;;;;;6.10;99.90;;;;;;5037942;28;20029;-54
2023/05/03 06:01:40;;;;;;;;;;;6.20;99.90;;;;;;5039475;28;19938;-51
2023/05/03 06:04:07;;;;;;;;;;;6.30;99.90;;;;;;5038664;28;20278;-58
2023/05/03 06:06:33;;;;;;;;;;;6.40;99.90;;;;;;5037514;28;19999;-52
2023/05/03 06:09:00;;;;;;;;;;;6.60;99.90;;;;;;5039239;28;20018;-59
2023/05/03 06:11:26;;;;;;;;;;;6.70;99.90;;;;;;5039642;28;19959;-55
2023/05/03 06:13:53;;;;;;;;;;;6.90;99.90;;;;;;5039753;28;20388;-55
2023/05/03 06:16:20;;;;;;;;;;;7.00;99.90;;;;;;5050894;28;20028;-53
2023/05/03 06:18:48;;;;;;;;;;;7.10;99.90;;;;;;5037876;28;19938;-49
2023/05/03 06:21:15;;;;;;;;;;;7.30;99.90;;;;;;5038779;28;20034;-55
2023/05/03 06:23:42;;;;;;;;;;;7.40;99.90;;;;;;5037474;28;19939;-54
2023/05/03 06:26:08;;;;;;;;;;;7.50;99.90;;;;;;5039086;28;20016;-52
2023/05/03 06:28:35;;;;;;;;;;;7.60;99.90;;;;;;5037475;28;19953;-51
2023/05/03 06:31:01;;;;;;;;;;;7.80;99.90;;;;;;5037534;28;20392;-55
2023/05/03 06:33:28;;;;;;;;;;;7.80;99.90;;;;;;5039205;28;19970;-52
2023/05/03 06:35:57;;;;;;;;;;;8.00;99.90;;;;;;5039388;28;19937;-51
2023/05/03 06:38:25;;;;;;;;;;;8.10;99.90;;;;;;5038247;28;19937;-54
2023/05/03 06:40:51;;;;;;;;;;;8.20;99.90;;;;;;5037240;28;19941;-53
2023/05/03 06:43:19;;;;;;;;;;;8.30;99.90;;;;;;5038099;28;19997;-53
2023/05/03 06:45:46;;;;;;;;;;;8.40;99.90;;;;;;5038991;28;20428;-48
2023/05/03 06:48:13;;;;;;;;;;;8.40;99.90;;;;;;5038147;28;19990;-52
2023/05/03 06:50:40;;;;;;;;;;;8.50;99.90;;;;;;5039373;28;19938;-49
2023/05/03 06:53:08;;;;;;;;;;;8.70;99.90;;;;;;5037189;28;20036;-54
2023/05/03 06:55:35;;;;;;;;;;;8.80;99.90;;;;;;5036957;28;19959;-56
2023/05/03 06:58:02;;;;;;;;;;;8.80;99.90;;;;;;5038895;28;19941;-48
2023/05/03 07:00:29;;;;;;;;;;;8.90;99.90;;;;;;5035761;28;20001;-54
2023/05/03 07:02:56;;;;;;;;;;;9.00;99.90;;;;;;5034915;28;19941;-49
2023/05/03 07:05:22;;;;;;;;;;;9.10;99.90;;;;;;5033606;28;20464;-54
2023/05/03 07:07:49;;;;;;;;;;;9.20;99.90;;;;;;5035560;28;20063;-55
2023/05/03 07:10:17;;;;;;;;;;;9.20;99.90;;;;;;5035515;28;19932;-51
2023/05/03 07:12:44;;;;;;;;;;;9.30;99.90;;;;;;5034109;28;19979;-50
2023/05/03 07:15:10;;;;;;;;;;;9.50;99.90;;;;;;5046104;28;19936;-49
2023/05/03 07:17:37;;;;;;;;;;;9.70;99.90;;;;;;5054283;28;19988;-51
2023/05/03 07:20:04;;;;;;;;;;;9.90;99.90;;;;;;5032931;28;19939;-49
2023/05/03 07:22:31;;;;;;;;;;;10.00;99.90;;;;;;5035144;28;19939;-52
2023/05/03 07:24:58;;;;;;;;;;;10.10;99.90;;;;;;5034492;28;20049;-47
2023/05/03 07:27:26;;;;;;;;;;;10.20;99.80;;;;;;5033175;28;20426;-51
2023/05/03 07:29:53;;;;;;;;;;;10.30;98.20;;;;;;5033348;28;19945;-51
2023/05/03 07:32:20;;;;;;;;;;;10.40;98.90;;;;;;5034240;28;20454;-47
2023/05/03 07:34:47;;;;;;;;;;;10.40;98.20;;;;;;5033049;28;19961;-48
2023/05/03 07:37:13;;;;;;;;;;;10.40;99.00;;;;;;5033926;28;20019;-55
2023/05/03 07:39:40;;;;;;;;;;;10.40;98.20;;;;;;5033777;28;19935;-50
2023/05/03 07:42:07;;;;;;;;;;;10.50;97.70;;;;;;5033582;28;20444;-45
2023/05/03 07:44:35;;;;;;;;;;;10.60;98.20;;;;;;5033726;28;19935;-50
2023/05/03 07:47:02;;;;;;;;;;;10.80;98.50;;;;;;5032223;28;19939;-50
2023/05/03 07:49:29;;;;;;;;;;;11.00;98.50;;;;;;5033722;28;19988;-49
2023/05/03 07:51:56;;;;;;;;;;;11.10;98.00;;;;;;5033999;28;19933;-45
2023/05/03 07:54:23;;;;;;;;;;;11.20;98.10;;;;;;5033309;28;19988;-50
2023/05/03 07:56:50;;;;;;;;;;;11.20;96.80;;;;;;5033543;28;20020;-47
2023/05/03 07:59:16;;;;;;;;;;;11.30;97.50;;;;;;5032753;28;20347;-49
2023/05/03 08:01:44;;;;;;;;;;;11.20;96.60;;;;;;5033611;28;19986;-52
2023/05/03 08:04:11;;;;;;;;;;;11.10;95.80;;;;;;5031796;28;20032;-52
2023/05/03 08:06:38;;;;;;;;;;;11.10;96.50;;;;;;5041748;28;19957;-47
2023/05/03 08:09:04;;;;;;;;;;;11.20;97.10;;;;;;5035290;28;19962;-50
2023/05/03 08:11:31;;;;;;;;;;;11.50;97.80;;;;;;5031704;28;19994;-46
2023/05/03 08:13:58;;;;;;;;;;;11.50;97.10;;;;;;5032380;28;19974;-51
2023/05/03 08:16:24;;;;;;;;;;;11.70;96.10;;;;;;5031209;28;20407;-45
2023/05/03 08:18:52;;;;;;;;;;;11.60;96.80;;;;;;5030407;28;20389;-52
2023/05/03 08:21:20;;;;;;;;;;;11.60;96.00;;;;;;5031810;28;20000;-51
2023/05/03 08:23:47;;;;;;;;;;;11.70;95.60;;;;;;5031850;28;19945;-45
2023/05/03 08:26:14;;;;;;;;;;;11.70;95.40;;;;;;5031030;28;19968;-49
2023/05/03 08:28:41;;;;;;;;;;;11.60;94.00;;;;;;5032067;28;20489;-50
2023/05/03 08:31:07;;;;;;;;;;;11.50;95.70;;;;;;5033707;28;19935;-51
2023/05/03 08:33:34;;;;;;;;;;;11.40;94.50;;;;;;5031467;28;19998;-50
2023/05/03 08:36:02;;;;;;;;;;;11.50;95.10;;;;;;5032891;28;19980;-48
2023/05/03 08:38:28;;;;;;;;;;;11.50;95.90;;;;;;5032509;28;19980;-50
2023/05/03 08:40:55;;;;;;;;;;;11.40;95.40;;;;;;5030923;28;20434;-44
2023/05/03 08:43:22;;;;;;;;;;;11.50;95.60;;;;;;5033333;28;20114;-46
2023/05/03 08:45:48;;;;;;;;;;;11.50;96.50;;;;;;5032547;28;19986;-45
2023/05/03 08:48:15;;;;;;;;;;;11.70;95.90;;;;;;5031874;28;20045;-48
2023/05/03 08:50:42;;;;;;;;;;;11.80;96.20;;;;;;5033028;28;20404;-48
2023/05/03 08:53:10;;;;;;;;;;;11.80;96.60;;;;;;5032383;28;19938;-47
2023/05/03 08:55:36;;;;;;;;;;;11.90;96.60;;;;;;5032776;28;19938;-48
2023/05/03 08:58:03;;;;;;;;;;;12.00;96.30;;;;;;5031652;28;19977;-48
2023/05/03 09:00:30;;;;;;;;;;;11.90;96.10;;;;;;5032420;28;19941;-48
2023/05/03 09:02:56;;;;;;;;;;;11.90;95.10;;;;;;5031659;28;20479;-50
2023/05/03 09:05:33;;;;;;;;;;;11.90;95.70;;;;;;5031154;28;19938;-47
2023/05/03 09:08:00;;;;;;;;;;;11.80;94.10;;;;;;5042301;28;19952;-50
2023/05/03 09:10:28;;;;;;;;;;;11.70;94.00;;;;;;5031840;28;19984;-48
2023/05/03 09:12:57;;;;;;;;;;;11.60;94.70;;;;;;5031287;28;19984;-47
2023/05/03 09:15:25;;;;;;;;;;;11.70;96.00;;;;;;5032965;28;19983;-48
2023/05/03 09:18:06;;;;;;;;;;;11.80;95.90;;;;;;5030906;28;20402;-48
2023/05/03 09:20:34;;;;;;;;;;;11.80;94.90;;;;;;5029505;28;20020;-49
2023/05/03 09:23:00;;;;;;;;;;;11.80;94.40;;;;;;5031687;28;20322;-48
2023/05/03 09:25:40;;;;;;;;;;;11.70;94.40;;;;;;5030286;28;20306;-51
2023/05/03 09:28:12;;;;;;;;;;;11.70;94.60;;;;;;5030521;28;20448;-52
2023/05/03 09:30:39;;;;;;;;;;;11.80;95.40;;;;;;5032725;28;19990;-49
2023/05/03 09:33:06;;;;;;;;;;;11.90;95.40;;;;;;5031744;28;20287;-47
2023/05/03 09:35:33;;;;;;;;;;;11.90;93.80;;;;;;5030302;28;19966;-46
2023/05/03 09:38:00;;;;;;;;;;;11.90;94.60;;;;;;5032263;28;20400;-50
2023/05/03 09:40:26;;;;;;;;;;;11.90;95.10;;;;;;5031435;28;20062;-46
2023/05/03 09:43:06;;;;;;;;;;;11.90;95.10;;;;;;5031723;28;20136;-47
2023/05/03 09:45:34;;;;;;;;;;;12.00;95.30;;;;;;5030760;28;20424;-47
2023/05/03 09:48:00;;;;;;;;;;;12.10;95.20;;;;;;5030908;28;19956;-47
2023/05/03 09:50:27;;;;;;;;;;;12.10;95.10;;;;;;5031754;28;19931;-50
2023/05/03 09:52:54;;;;;;;;;;;12.20;95.10;;;;;;5031509;28;19976;-49
2023/05/03 09:55:21;;;;;;;;;;;12.20;94.90;;;;;;5030830;28;19951;-50
2023/05/03 09:57:49;;;;;;;;;;;12.30;95.40;;;;;;5031471;28;19944;-47
2023/05/03 10:00:19;;;;;;;;;;;12.30;95.20;;;;;;5031552;28;19939;-47
2023/05/03 10:02:46;;;;;;;;;;;12.40;94.90;;;;;;5030410;28;20019;-48
2023/05/03 10:05:15;;;;;;;;;;;12.40;94.40;;;;;;5032094;28;20026;-51
2023/05/03 10:07:42;;;;;;;;;;;12.50;95.00;;;;;;5033062;28;20018;-50
2023/05/03 10:10:09;;;;;;;;;;;12.60;95.00;;;;;;5032360;28;20030;-48
2023/05/03 10:12:35;;;;;;;;;;;12.70;95.00;;;;;;5030165;28;19970;-46
2023/05/03 10:15:02;;;;;;;;;;;12.80;93.40;;;;;;5030678;28;19958;-51
2023/05/03 10:17:32;;;;;;;;;;;13.00;94.70;;;;;;5031244;28;19992;-50
2023/05/03 10:20:00;;;;;;;;;;;13.30;94.20;;;;;;5031253;28;19942;-47
2023/05/03 10:22:27;;;;;;;;;;;13.50;92.70;;;;;;5031382;28;20272;-48
2023/05/03 10:25:10;;;;;;;;;;;13.90;92.60;;;;;;5032310;28;19980;-50
2023/05/03 10:27:50;;;;;;;;;;;14.20;91.50;;;;;;5030942;28;19943;-46
2023/05/03 10:30:27;;;;;;;;;;;14.50;90.70;;;;;;5030287;28;20458;-50
2023/05/03 10:32:55;;;;;;;;;;;14.70;90.90;;;;;;5032026;28;20020;-47
2023/05/03 10:35:22;;;;;;;;;;;14.90;90.70;;;;;;5034027;28;20476;-48
2023/05/03 10:37:49;;;;;;;;;;;15.10;90.20;;;;;;5033348;28;19937;-46
2023/05/03 10:40:16;;;;;;;;;;;15.30;88.70;;;;;;5034885;28;19990;-49
2023/05/03 10:42:43;;;;;;;;;;;15.30;89.10;;;;;;5034702;28;19975;-49
2023/05/03 10:45:11;;;;;;;;;;;15.20;84.20;;;;;;5033635;28;19980;-51
2023/05/03 10:47:39;;;;;;;;;;;15.10;87.70;;;;;;5031440;28;19933;-51
2023/05/03 10:50:33;;;;;;;;;;;14.80;85.40;;;;;;5033310;28;19955;-46
2023/05/03 10:53:01;;;;;;;;;;;14.70;88.90;;;;;;5010491;28;20443;-44
2023/05/03 10:55:27;;;;;;;;;;;14.50;89.40;;;;;;5032382;28;20031;-50
2023/05/03 10:57:55;;;;;;;;;;;14.60;90.10;;;;;;5033149;28;20002;-49
2023/05/03 11:00:23;;;;;;;;;;;14.40;85.70;;;;;;5032264;28;19973;-47
2023/05/03 11:03:03;;;;;;;;;;;14.30;89.30;;;;;;5033278;28;19981;-48
2023/05/03 11:05:29;;;;;;;;;;;14.50;86.00;;;;;;5030835;28;20007;-52
2023/05/03 11:08:08;;;;;;;;;;;14.80;86.60;;;;;;5036073;28;20039;-48
2023/05/03 11:10:35;;;;;;;;;;;15.10;90.00;;;;;;5030735;28;20383;-47
2023/05/03 11:13:02;;;;;;;;;;;15.40;90.90;;;;;;5031444;28;20392;-47
2023/05/03 11:15:28;;;;;;;;;;;15.80;86.20;;;;;;5033632;28;19984;-45
2023/05/03 11:17:55;;;;;;;;;;;16.00;86.70;;;;;;5031137;28;19980;-49
2023/05/03 11:20:21;;;;;;;;;;;16.30;86.00;;;;;;5033136;28;19937;-45
2023/05/03 11:22:48;;;;;;;;;;;16.50;83.50;;;;;;5033233;28;19938;-47
2023/05/03 11:25:16;;;;;;;;;;;16.50;85.20;;;;;;5033014;28;20038;-49
2023/05/03 11:27:43;;;;;;;;;;;16.50;83.60;;;;;;5031570;28;20027;-44
2023/05/03 11:30:11;;;;;;;;;;;16.40;83.90;;;;;;5031508;28;20044;-45
2023/05/03 11:32:37;;;;;;;;;;;16.30;81.40;;;;;;5032979;28;20357;-49
2023/05/03 11:35:06;;;;;;;;;;;16.10;81.10;;;;;;5033321;28;19980;-47
2023/05/03 11:37:32;;;;;;;;;;;16.10;82.80;;;;;;5032676;28;20394;-50
2023/05/03 11:39:59;;;;;;;;;;;16.10;82.00;;;;;;5033905;28;20043;-47
2023/05/03 11:42:27;;;;;;;;;;;16.20;80.60;;;;;;5034862;28;19995;-48
2023/05/03 11:44:54;;;;;;;;;;;16.30;83.50;;;;;;5031167;28;19936;-47
2023/05/03 11:47:21;;;;;;;;;;;16.50;82.20;;;;;;5032003;28;20026;-50
2023/05/03 11:49:51;;;;;;;;;;;16.60;80.10;;;;;;5031431;28;19945;-42
2023/05/03 11:52:20;;;;;;;;;;;16.80;83.60;;;;;;5032428;28;20343;-46
2023/05/03 11:54:47;;;;;;;;;;;16.90;76.40;;;;;;5031928;28;19932;-49
2023/05/03 11:57:14;;;;;;;;;;;16.90;80.80;;;;;;5032534;28;21299;-50
2023/05/03 11:59:43;;;;;;;;;;;17.00;81.70;;;;;;5033582;28;20030;-45
2023/05/03 12:02:11;;;;;;;;;;;17.10;80.30;;;;;;5031324;28;19980;-47
2023/05/03 12:04:40;;;;;;;;;;;17.20;80.50;;;;;;5030819;28;19981;-46
2023/05/03 12:07:07;;;;;;;;;;;17.20;79.70;;;;;;5030493;28;19948;-45
2023/05/03 12:09:34;;;;;;;;;;;17.20;82.00;;;;;;5030640;28;19999;-45
2023/05/03 12:12:01;;;;;;;;;;;17.30;77.60;;;;;;5032525;28;19936;-50
2023/05/03 12:14:27;;;;;;;;;;;17.50;79.20;;;;;;5032364;28;19938;-48
2023/05/03 12:16:57;;;;;;;;;;;17.60;80.00;;;;;;5030428;28;20335;-43
2023/05/03 12:19:24;;;;;;;;;;;17.80;78.30;;;;;;5033326;28;19962;-43
2023/05/03 12:21:51;;;;;;;;;;;17.70;75.30;;;;;;5031034;28;19980;-48
2023/05/03 12:24:18;;;;;;;;;;;17.70;78.00;;;;;;5030743;28;19989;-50
2023/05/03 12:26:44;;;;;;;;;;;17.80;80.10;;;;;;5030410;28;19943;-46
2023/05/03 12:29:11;;;;;;;;;;;18.00;78.10;;;;;;5031059;28;20040;-42
2023/05/03 12:31:38;;;;;;;;;;;18.10;72.30;;;;;;5030520;28;19939;-48
2023/05/03 12:34:06;;;;;;;;;;;18.10;76.30;;;;;;5031289;28;19958;-47
2023/05/03 12:36:33;;;;;;;;;;;18.00;74.80;;;;;;5032956;28;19937;-45
2023/05/03 12:38:59;;;;;;;;;;;18.10;69.80;;;;;;5027932;28;20295;-44
2023/05/03 12:41:28;;;;;;;;;;;18.00;73.40;;;;;;5028311;28;19933;-45
2023/05/03 12:43:55;;;;;;;;;;;18.00;72.90;;;;;;5029592;28;19940;-49
2023/05/03 12:46:22;;;;;;;;;;;18.10;73.10;;;;;;5029908;28;19938;-45
2023/05/03 12:48:49;;;;;;;;;;;18.00;71.30;;;;;;5023568;28;19992;-49
2023/05/03 12:51:17;;;;;;;;;;;17.90;69.70;;;;;;5029635;28;20034;-45
2023/05/03 12:53:45;;;;;;;;;;;18.00;73.90;;;;;;5032187;28;20016;-50
2023/05/03 12:56:12;;;;;;;;;;;18.00;70.50;;;;;;5030709;28;19937;-46
2023/05/03 12:58:40;;;;;;;;;;;17.80;73.10;;;;;;5029082;28;19985;-47
2023/05/03 13:01:07;;;;;;;;;;;17.90;72.60;;;;;;5025589;28;19939;-45
2023/05/03 13:03:34;;;;;;;;;;;18.10;72.90;;;;;;5026245;28;19942;-44
2023/05/03 13:06:03;;;;;;;;;;;18.20;72.80;;;;;;5031521;28;19974;-47
2023/05/03 13:08:32;;;;;;;;;;;18.30;73.60;;;;;;5029914;28;19936;-48
2023/05/03 13:10:58;;;;;;;;;;;18.40;70.10;;;;;;5026772;28;20009;-46
2023/05/03 13:13:27;;;;;;;;;;;18.50;69.80;;;;;;5027818;28;20496;-48
2023/05/03 13:15:53;;;;;;;;;;;18.60;70.50;;;;;;5028545;28;19946;-45
2023/05/03 13:18:21;;;;;;;;;;;18.50;71.00;;;;;;5027953;28;19939;-47
2023/05/03 13:20:49;;;;;;;;;;;18.60;69.50;;;;;;5030269;28;19933;-43
2023/05/03 13:23:15;;;;;;;;;;;18.70;72.40;;;;;;5029642;28;19985;-47
2023/05/03 13:25:45;;;;;;;;;;;18.70;67.20;;;;;;5028034;28;20102;-44
2023/05/03 13:28:11;;;;;;;;;;;18.80;69.20;;;;;;5029013;28;19937;-44
2023/05/03 13:30:38;;;;;;;;;;;18.70;68.70;;;;;;5027757;28;19993;-44
2023/05/03 13:33:04;;;;;;;;;;;18.50;66.10;;;;;;5029288;28;19979;-47
2023/05/03 13:35:31;;;;;;;;;;;18.50;69.10;;;;;;5022454;28;20010;-45
2023/05/03 13:37:58;;;;;;;;;;;18.50;68.20;;;;;;5026706;28;20027;-44
2023/05/03 13:40:24;;;;;;;;;;;18.60;70.10;;;;;;5023261;28;19976;-45
2023/05/03 13:42:52;;;;;;;;;;;18.80;69.30;;;;;;5030721;28;19940;-45
2023/05/03 13:45:19;;;;;;;;;;;18.90;67.30;;;;;;5030825;28;19941;-46
2023/05/03 13:47:46;;;;;;;;;;;18.70;64.40;;;;;;5031947;28;20293;-45
2023/05/03 13:50:12;;;;;;;;;;;18.60;68.10;;;;;;5031033;28;20035;-44
2023/05/03 13:52:41;;;;;;;;;;;18.80;71.10;;;;;;5029814;28;20002;-48
2023/05/03 13:55:08;;;;;;;;;;;19.00;67.40;;;;;;5029899;28;20331;-45
2023/05/03 13:57:35;;;;;;;;;;;19.20;70.10;;;;;;5028200;28;20481;-45
2023/05/03 14:00:04;;;;;;;;;;;19.30;67.40;;;;;;5021311;28;19946;-47
2023/05/03 14:02:31;;;;;;;;;;;19.40;67.10;;;;;;5029625;28;19934;-46
2023/05/03 14:04:57;;;;;;;;;;;19.30;65.30;;;;;;5031498;28;19980;-47
2023/05/03 14:07:24;;;;;;;;;;;19.20;65.50;;;;;;5037000;28;20361;-44
2023/05/03 14:09:51;;;;;;;;;;;19.30;68.00;;;;;;5032256;28;19955;-47
2023/05/03 14:12:17;;;;;;;;;;;19.10;66.30;;;;;;5030983;28;19983;-45
2023/05/03 14:14:44;;;;;;;;;;;19.00;66.70;;;;;;5032913;28;20783;-44
2023/05/03 14:17:12;;;;;;;;;;;19.00;68.00;;;;;;5031481;28;19942;-43
2023/05/03 14:19:39;;;;;;;;;;;19.10;68.30;;;;;;5032712;28;20034;-46
2023/05/03 14:22:05;;;;;;;;;;;19.20;67.60;;;;;;5031735;28;19937;-47
2023/05/03 14:24:32;;;;;;;;;;;19.30;68.30;;;;;;5030579;28;19987;-49